Terminal Aerodrome Forecast
Issued by NWS

Home | Current Version | Previous Version | Text Only | Print | Product List | Glossary On
Versions: 1 2 3 4 5 6 7 8 9 10 11 12 13 14 15 16 17 18 19 20 21 22 23
000
FTPA31 PHFO 012300 CCA
TAFMDY
TAF COR
PMDY 012345Z 0200/0224 14015G25KT 4SM -SHRA SCT020 BKN040
      TEMPO 0200/0203 2SM SHRA BR SCT008 BKN020
     FM021400 25014G24KT P6SM SCT025 BKN035
      AMD LTD TO CLD AND WIND=

USA.gov is the U.S. government's official web portal to all federal, state and local government web resources and services.